createdAt,value
2019-05-22T00:02:27.398Z,13.75
2019-05-22T00:05:14.218Z,18.87
2019-05-22T00:07:45.651Z,17.32
2019-05-22T00:10:16.766Z,13.30
2019-05-22T00:12:47.420Z,12.25
2019-05-22T00:15:16.853Z,18.95
2019-05-22T00:17:45.711Z,15.65
2019-05-22T00:20:14.755Z,16.37
2019-05-22T00:22:45.556Z,21.42
2019-05-22T00:25:16.292Z,13.72
2019-05-22T00:27:47.143Z,17.77
2019-05-22T00:30:17.099Z,13.88
2019-05-22T00:32:47.583Z,18.90
2019-05-22T00:35:16.891Z,14.68
2019-05-22T00:37:46.174Z,14.13
2019-05-22T00:40:16.683Z,16.17
2019-05-22T00:43:02.950Z,19.52
2019-05-22T00:45:18.219Z,18.35
2019-05-22T00:47:47.081Z,18.35
2019-05-22T00:50:27.003Z,16.80
2019-05-22T00:53:09.938Z,15.40
2019-05-22T00:55:40.879Z,18.35
2019-05-22T00:58:14.911Z,17.23
2019-05-22T01:00:45.752Z,17.87
2019-05-22T01:03:17.021Z,17.40
2019-05-22T01:05:45.988Z,17.67
2019-05-22T01:08:18.003Z,17.73
2019-05-22T01:10:48.386Z,17.77
2019-05-22T01:13:18.972Z,18.20
2019-05-22T01:15:48.693Z,17.92
2019-05-22T01:18:19.236Z,12.33
2019-05-22T01:20:49.945Z,13.22
2019-05-22T01:23:20.998Z,14.15
2019-05-22T01:25:50.053Z,11.28
2019-05-22T01:28:20.151Z,11.68
2019-05-22T01:30:50.943Z,13.43
2019-05-22T01:33:21.842Z,12.15
2019-05-22T01:35:56.460Z,12.05
2019-05-22T01:38:26.149Z,14.15
2019-05-22T01:41:15.015Z,10.18
2019-05-22T01:43:44.497Z,7.70
2019-05-22T01:46:15.127Z,8.15
2019-05-22T01:48:45.582Z,12.20
2019-05-22T01:51:16.448Z,10.43
2019-05-22T01:53:46.953Z,11.15
2019-05-22T01:56:17.183Z,7.33
2019-05-22T01:58:46.541Z,12.45
2019-05-22T02:01:20.786Z,9.00
2019-05-22T02:03:51.443Z,10.55
2019-05-22T02:06:21.960Z,8.05
2019-05-22T02:08:53.704Z,11.22
2019-05-22T02:11:23.593Z,12.15
2019-05-22T02:13:58.272Z,12.00
2019-05-22T02:16:28.112Z,10.95
2019-05-22T02:18:57.098Z,10.58
2019-05-22T02:21:27.252Z,20.45
2019-05-22T02:23:56.606Z,11.80
2019-05-22T02:26:25.669Z,15.50
2019-05-22T02:28:55.652Z,13.10
2019-05-22T02:31:26.134Z,13.62
2019-05-22T02:33:59.440Z,18.10
2019-05-22T02:36:28.856Z,14.70
2019-05-22T02:38:58.493Z,13.28
2019-05-22T02:41:29.162Z,18.02
2019-05-22T02:43:58.368Z,12.43
2019-05-22T02:46:27.262Z,14.18
2019-05-22T02:48:57.956Z,10.72
2019-05-22T02:51:27.528Z,16.60
2019-05-22T02:53:58.255Z,8.25
2019-05-22T02:56:27.086Z,8.73
2019-05-22T02:58:55.988Z,12.60
2019-05-22T03:01:25.229Z,12.88
2019-05-22T03:03:54.478Z,15.80
2019-05-22T03:06:23.683Z,20.37
2019-05-22T03:09:00.042Z,12.05
2019-05-22T03:11:35.172Z,11.73
2019-05-22T03:14:04.462Z,11.53
2019-05-22T03:16:52.820Z,14.65
2019-05-22T03:19:28.061Z,11.35
2019-05-22T03:21:57.181Z,15.68
2019-05-22T03:24:26.282Z,17.35
2019-05-22T03:26:56.117Z,9.95
2019-05-22T03:29:30.997Z,11.60
2019-05-22T03:32:00.282Z,20.23
2019-05-22T03:34:29.366Z,14.83
2019-05-22T03:36:58.485Z,13.78
2019-05-22T03:39:28.106Z,14.70
2019-05-22T03:41:57.060Z,14.47
2019-05-22T03:44:26.624Z,13.58
2019-05-22T03:46:59.272Z,14.20
2019-05-22T03:49:30.627Z,16.57
2019-05-22T03:51:57.868Z,9.03
2019-05-22T03:54:27.166Z,14.25
2019-05-22T03:56:56.338Z,13.48
2019-05-22T03:59:25.809Z,12.28
2019-05-22T04:01:55.403Z,12.95
2019-05-22T04:04:35.700Z,12.58
2019-05-22T04:07:06.617Z,17.45
2019-05-22T04:09:37.412Z,19.40
2019-05-22T04:12:06.842Z,14.95
2019-05-22T04:14:37.918Z,15.00
2019-05-22T04:17:08.176Z,20.77
2019-05-22T04:19:49.121Z,10.80
2019-05-22T04:22:09.689Z,18.37
2019-05-22T04:24:41.329Z,15.18
2019-05-22T04:27:12.243Z,15.53
2019-05-22T04:29:42.539Z,13.22
2019-05-22T04:32:32.916Z,12.43
2019-05-22T04:35:03.244Z,16.95
2019-05-22T04:37:32.275Z,12.80
2019-05-22T04:40:26.520Z,15.48
2019-05-22T04:42:59.062Z,15.85
2019-05-22T04:45:28.746Z,19.67
2019-05-22T04:47:58.973Z,21.30
2019-05-22T04:50:29.308Z,14.73
2019-05-22T04:52:59.380Z,14.50
2019-05-22T04:55:30.125Z,18.65
2019-05-22T04:58:11.145Z,23.32
2019-05-22T05:00:40.109Z,15.58
2019-05-22T05:03:09.481Z,17.32
2019-05-22T05:05:42.765Z,24.77
2019-05-22T05:08:12.602Z,20.68
2019-05-22T05:10:42.036Z,15.60
2019-05-22T05:13:11.118Z,17.80
2019-05-22T05:15:40.265Z,17.42
2019-05-22T05:18:09.389Z,18.98
2019-05-22T05:20:38.595Z,21.30
2019-05-22T05:23:07.515Z,17.42
2019-05-22T05:25:37.025Z,23.20
2019-05-22T05:28:07.653Z,18.65
2019-05-22T05:30:36.865Z,19.65
2019-05-22T05:33:06.571Z,17.90
2019-05-22T05:35:36.181Z,19.07
2019-05-22T05:38:05.756Z,10.58
2019-05-22T05:40:42.627Z,12.80
2019-05-22T05:43:12.520Z,12.23
2019-05-22T05:45:42.340Z,14.75
2019-05-22T05:48:23.770Z,18.05
2019-05-22T05:53:40.279Z,19.00
2019-05-22T05:56:15.363Z,12.58
2019-05-22T05:58:44.679Z,16.23
2019-05-22T06:01:19.811Z,16.77
2019-05-22T06:03:49.022Z,13.70
2019-05-22T06:06:28.528Z,13.38
2019-05-22T06:09:00.794Z,18.82
2019-05-22T06:11:39.573Z,13.90
2019-05-22T06:14:10.481Z,15.50
2019-05-22T06:16:59.238Z,19.67
2019-05-22T06:19:28.909Z,15.50
2019-05-22T06:21:58.614Z,14.50
2019-05-22T06:24:38.503Z,15.13
2019-05-22T06:27:16.069Z,14.85
2019-05-22T06:30:06.404Z,16.85
2019-05-22T06:33:09.092Z,14.83
2019-05-22T06:35:39.132Z,16.57
2019-05-22T06:38:23.295Z,14.98
2019-05-22T06:40:52.599Z,15.55
2019-05-22T06:43:28.902Z,9.33
2019-05-22T06:45:57.888Z,17.23
2019-05-22T06:48:27.031Z,19.60
2019-05-22T06:50:56.212Z,13.15
2019-05-22T06:53:25.380Z,17.32
2019-05-22T06:55:54.485Z,16.02
2019-05-22T06:58:23.728Z,22.00
2019-05-22T07:00:52.955Z,13.22
2019-05-22T07:03:22.415Z,20.52
2019-05-22T07:05:52.301Z,21.40
2019-05-22T07:08:22.295Z,11.00
2019-05-22T07:10:51.422Z,15.05
2019-05-22T07:13:21.643Z,17.30
2019-05-22T07:15:52.833Z,31.05
2019-05-22T07:18:22.902Z,15.32
2019-05-22T07:20:53.124Z,18.07
2019-05-22T07:23:23.999Z,16.95
2019-05-22T07:25:53.199Z,12.40
2019-05-22T07:28:23.730Z,17.90
2019-05-22T07:30:52.893Z,22.48
2019-05-22T07:33:23.705Z,11.25
2019-05-22T07:36:08.612Z,12.93
2019-05-22T07:38:23.706Z,11.00
2019-05-22T07:40:53.302Z,14.60
2019-05-22T07:43:23.013Z,14.78
2019-05-22T07:45:53.059Z,11.57
2019-05-22T07:48:23.905Z,14.98
2019-05-22T07:50:54.545Z,14.75
2019-05-22T07:53:24.203Z,12.43
2019-05-22T07:55:53.509Z,16.82
2019-05-22T07:58:23.207Z,13.83
2019-05-22T08:00:53.787Z,17.45
2019-05-22T08:03:23.745Z,13.32
2019-05-22T08:05:53.793Z,18.27
2019-05-22T08:08:24.087Z,15.58
2019-05-22T08:10:54.039Z,18.07
2019-05-22T08:13:23.603Z,14.73
2019-05-22T08:15:52.922Z,19.48
2019-05-22T08:18:22.225Z,20.97
2019-05-22T08:20:51.311Z,30.17
2019-05-22T08:23:20.481Z,21.62
2019-05-22T08:25:49.505Z,16.48
2019-05-22T08:28:19.348Z,14.78
2019-05-22T08:30:48.801Z,12.13
2019-05-22T08:33:17.768Z,12.25
2019-05-22T08:35:47.199Z,13.38
2019-05-22T08:38:16.049Z,12.63
2019-05-22T08:40:45.680Z,12.65
2019-05-22T08:43:14.890Z,12.00
2019-05-22T08:45:43.876Z,12.43
2019-05-22T08:48:13.788Z,16.60
2019-05-22T08:50:44.681Z,51.37
2019-05-22T08:53:15.231Z,51.95
2019-05-22T08:55:44.888Z,16.37
2019-05-22T09:11:30.030Z,14.50
2019-05-22T09:13:58.985Z,15.35
2019-05-22T09:16:28.229Z,14.50
2019-05-22T09:18:57.335Z,20.30
2019-05-22T09:21:26.718Z,15.60
2019-05-22T09:23:59.655Z,16.17
2019-05-22T09:26:30.066Z,13.30
2019-05-22T09:28:59.038Z,17.27
2019-05-22T09:31:29.073Z,20.10
2019-05-22T09:33:58.246Z,18.87
2019-05-22T09:36:27.340Z,21.07
2019-05-22T09:38:56.754Z,13.10
2019-05-22T09:41:26.008Z,19.10
2019-05-22T09:43:55.640Z,17.82
2019-05-22T09:46:26.217Z,13.88
2019-05-22T09:48:57.146Z,10.00
2019-05-22T09:51:26.036Z,19.73
2019-05-22T09:53:55.410Z,16.73
2019-05-22T09:56:25.306Z,15.48
2019-05-22T09:58:54.329Z,14.47
2019-05-22T10:01:23.706Z,13.25
2019-05-22T10:03:53.259Z,21.35
2019-05-22T10:06:22.475Z,10.80
2019-05-22T10:08:51.630Z,18.00
2019-05-22T10:11:21.112Z,26.37
2019-05-22T10:13:50.699Z,16.35
2019-05-22T10:16:20.123Z,17.23
2019-05-22T10:18:52.951Z,16.07
2019-05-22T10:21:21.645Z,19.57
2019-05-22T10:23:51.074Z,24.12
2019-05-22T10:26:21.313Z,19.32
2019-05-22T10:28:50.641Z,23.65
2019-05-22T10:31:21.842Z,23.92
2019-05-22T10:33:52.232Z,15.78
2019-05-22T10:36:21.635Z,20.90
2019-05-22T10:38:50.943Z,17.70
2019-05-22T10:41:20.153Z,23.02
2019-05-22T10:43:49.717Z,22.07
2019-05-22T10:46:18.743Z,22.77
2019-05-22T10:48:48.071Z,17.30
2019-05-22T10:51:17.282Z,16.55
2019-05-22T10:53:46.506Z,23.52
2019-05-22T10:56:15.337Z,22.80
2019-05-22T10:58:44.421Z,16.35
2019-05-22T11:01:13.664Z,18.85
2019-05-22T11:03:42.990Z,13.15
2019-05-22T11:06:12.488Z,14.28
2019-05-22T11:08:41.736Z,14.13
2019-05-22T11:11:11.051Z,22.67
2019-05-22T11:13:40.895Z,28.17
2019-05-22T11:16:10.541Z,13.03
2019-05-22T11:18:39.960Z,15.53
2019-05-22T11:21:09.774Z,18.62
2019-05-22T11:23:51.318Z,17.50
2019-05-22T11:26:10.185Z,17.10
2019-05-22T11:28:40.015Z,19.95
2019-05-22T11:31:09.803Z,17.82
2019-05-22T11:33:38.783Z,23.15
2019-05-22T11:36:08.002Z,16.45
2019-05-22T11:38:37.160Z,16.97
2019-05-22T11:41:06.996Z,26.48
2019-05-22T11:43:36.354Z,17.65
2019-05-22T11:46:06.131Z,21.02
2019-05-22T11:48:35.701Z,12.93
2019-05-22T11:51:04.940Z,12.93
2019-05-22T11:53:34.100Z,13.35
2019-05-22T11:56:03.141Z,19.65
2019-05-22T11:58:32.548Z,18.87
2019-05-22T12:01:02.037Z,35.58
2019-05-22T12:03:31.865Z,37.67
2019-05-22T12:06:01.076Z,14.75
2019-05-22T12:08:30.465Z,20.02
2019-05-22T12:11:00.067Z,13.45
2019-05-22T12:13:29.169Z,11.22
2019-05-22T12:15:58.662Z,17.00
2019-05-22T12:18:28.708Z,10.82
2019-05-22T12:20:57.917Z,9.60
2019-05-22T12:23:27.663Z,41.60
2019-05-22T12:26:04.372Z,65.03
2019-05-22T12:28:33.775Z,15.98
2019-05-22T12:31:03.274Z,41.33
2019-05-22T12:33:32.928Z,10.00
2019-05-22T12:36:02.352Z,13.95
2019-05-22T12:38:33.437Z,11.20
2019-05-22T12:41:03.124Z,12.18
2019-05-22T12:43:33.044Z,10.18
2019-05-22T12:46:02.384Z,10.08
2019-05-22T12:48:32.394Z,13.45
2019-05-22T12:51:01.959Z,14.93
2019-05-22T12:53:31.769Z,11.55
2019-05-22T12:56:01.141Z,11.90
2019-05-22T12:58:30.957Z,6.85
2019-05-22T13:01:00.406Z,12.05
2019-05-22T13:03:30.342Z,10.43
2019-05-22T13:05:59.636Z,8.33
2019-05-22T13:08:29.354Z,13.55
2019-05-22T13:10:58.857Z,9.78
2019-05-22T13:13:28.210Z,12.70
2019-05-22T13:15:58.213Z,14.83
2019-05-22T13:18:27.341Z,17.02
2019-05-22T13:20:57.582Z,12.40
2019-05-22T13:23:31.036Z,12.15
2019-05-22T13:26:00.373Z,11.57
2019-05-22T13:28:30.084Z,9.80
2019-05-22T13:30:59.673Z,11.08
2019-05-22T13:33:29.484Z,16.80
2019-05-22T13:35:58.820Z,9.53
2019-05-22T13:38:28.637Z,12.18
2019-05-22T13:40:57.833Z,16.32
2019-05-22T13:43:27.792Z,10.53
2019-05-22T13:45:57.208Z,18.90
2019-05-22T13:48:26.630Z,29.72
2019-05-22T13:50:56.651Z,13.78
2019-05-22T13:53:26.154Z,12.55
2019-05-22T13:55:55.723Z,13.25
2019-05-22T13:58:24.945Z,9.70
2019-05-22T14:00:54.242Z,9.03
2019-05-22T14:03:24.036Z,7.83
2019-05-22T14:05:53.582Z,13.48
2019-05-22T14:08:23.233Z,8.48
2019-05-22T14:10:53.283Z,13.98
2019-05-22T14:13:23.498Z,13.95
2019-05-22T14:15:56.867Z,13.45
2019-05-22T14:18:23.384Z,12.58
2019-05-22T14:20:52.933Z,17.98
2019-05-22T14:23:21.980Z,13.58
2019-05-22T14:25:51.835Z,9.95
2019-05-22T14:28:21.909Z,7.95
2019-05-22T14:30:51.596Z,12.43
2019-05-22T14:33:20.869Z,10.35
2019-05-22T14:35:51.798Z,9.60
2019-05-22T14:38:20.879Z,13.28
2019-05-22T14:40:50.085Z,14.35
2019-05-22T14:43:19.154Z,13.70
2019-05-22T14:45:48.917Z,13.55
2019-05-22T14:48:18.229Z,12.85
2019-05-22T14:50:47.638Z,17.07
2019-05-22T14:53:17.127Z,16.20
2019-05-22T14:55:46.571Z,13.32
2019-05-22T14:58:15.980Z,11.63
2019-05-22T15:00:45.251Z,10.70
2019-05-22T15:03:15.152Z,11.08
2019-05-22T15:05:44.344Z,19.15
2019-05-22T15:08:13.728Z,14.95
2019-05-22T15:10:43.133Z,11.35
2019-05-22T15:13:12.443Z,10.48
2019-05-22T15:15:41.746Z,11.63
2019-05-22T15:18:11.130Z,14.05
2019-05-22T15:20:47.574Z,15.88
2019-05-22T15:23:17.197Z,12.60
2019-05-22T15:25:46.433Z,17.02
2019-05-22T15:28:16.303Z,12.15
2019-05-22T15:30:45.702Z,14.47
2019-05-22T15:33:15.036Z,13.28
2019-05-22T15:35:44.474Z,11.18
2019-05-22T15:38:13.976Z,11.68
2019-05-22T15:40:44.968Z,11.10
2019-05-22T15:43:14.829Z,14.05
2019-05-22T15:45:44.206Z,13.65
2019-05-22T15:48:16.432Z,12.13
2019-05-22T15:50:47.310Z,17.10
2019-05-22T15:53:16.626Z,15.60
2019-05-22T15:55:46.483Z,17.17
2019-05-22T15:58:17.439Z,15.45
2019-05-22T16:00:47.781Z,16.35
2019-05-22T16:03:23.212Z,18.60
2019-05-22T16:05:53.034Z,18.77
2019-05-22T16:08:22.756Z,15.35
2019-05-22T16:10:52.845Z,23.35
2019-05-22T16:38:52.791Z,22.75
2019-05-22T16:41:22.779Z,24.18
2019-05-22T16:43:52.138Z,22.48
2019-05-22T16:46:22.188Z,26.57
2019-05-22T16:48:51.722Z,23.92
2019-05-22T16:51:21.863Z,23.80
2019-05-22T16:53:56.172Z,22.67
2019-05-22T16:56:25.741Z,22.20
2019-05-22T16:58:55.263Z,25.32
2019-05-22T17:01:24.436Z,30.48
2019-05-22T17:03:54.214Z,21.73
2019-05-22T17:06:23.962Z,23.20
2019-05-22T17:08:53.634Z,23.62
2019-05-22T17:11:22.896Z,23.47
2019-05-22T17:13:52.562Z,19.40
2019-05-22T17:16:22.187Z,22.22
2019-05-22T17:18:51.752Z,22.42
2019-05-22T17:21:20.907Z,18.80
2019-05-22T17:23:50.072Z,24.50
2019-05-22T17:26:19.579Z,17.98
2019-05-22T17:28:49.019Z,16.23
2019-05-22T17:31:18.559Z,23.12
2019-05-22T17:33:47.861Z,18.05
2019-05-22T17:36:18.415Z,15.63
2019-05-22T17:38:47.896Z,15.10
2019-05-22T17:41:18.782Z,16.87
2019-05-22T17:43:48.298Z,15.38
2019-05-22T17:46:18.011Z,18.67
2019-05-22T17:48:47.716Z,12.95
2019-05-22T17:51:17.424Z,14.98
2019-05-22T17:53:46.929Z,16.50
2019-05-22T17:56:35.815Z,17.98
2019-05-22T17:59:05.380Z,17.65
2019-05-22T18:01:35.545Z,20.52
2019-05-22T18:04:05.601Z,20.72
2019-05-22T18:06:35.037Z,16.42
2019-05-22T18:09:05.237Z,20.50
2019-05-22T18:11:34.497Z,26.68
2019-05-22T18:14:05.305Z,21.25
2019-05-22T18:16:35.656Z,22.20
2019-05-22T18:19:05.779Z,19.32
2019-05-22T18:21:35.947Z,22.93
2019-05-22T18:24:05.268Z,19.73
2019-05-22T18:26:34.976Z,19.32
2019-05-22T18:29:04.709Z,19.65
2019-05-22T18:31:34.092Z,27.70
2019-05-22T18:34:03.548Z,22.73
2019-05-22T18:36:32.732Z,21.00
2019-05-22T18:39:01.978Z,20.20
2019-05-22T18:41:31.171Z,20.72
2019-05-22T18:44:00.071Z,23.38
2019-05-22T18:46:29.822Z,32.30
2019-05-22T18:48:58.883Z,28.55
2019-05-22T18:51:28.276Z,23.20
2019-05-22T18:53:59.115Z,22.98
2019-05-22T18:56:28.558Z,20.20
2019-05-22T18:58:57.618Z,23.52
2019-05-22T19:01:27.497Z,26.30
2019-05-22T19:03:56.438Z,30.27
2019-05-22T19:06:30.229Z,29.15
2019-05-22T19:08:56.440Z,22.00
2019-05-22T19:11:25.760Z,24.92
2019-05-22T19:13:55.101Z,27.32
2019-05-22T19:16:24.567Z,24.67
2019-05-22T19:18:54.159Z,28.02
2019-05-22T19:21:23.390Z,25.85
2019-05-22T19:23:52.503Z,30.82
2019-05-22T19:26:21.958Z,23.52
2019-05-22T19:28:51.836Z,25.15
2019-05-22T19:31:21.415Z,24.05
2019-05-22T19:33:51.013Z,24.23
2019-05-22T19:36:20.435Z,24.12
2019-05-22T19:38:49.601Z,22.37
2019-05-22T19:41:18.995Z,25.72
2019-05-22T19:43:48.220Z,26.93
2019-05-22T19:46:18.039Z,25.00
2019-05-22T19:48:47.352Z,20.48
2019-05-22T19:51:17.626Z,23.95
2019-05-22T19:53:48.189Z,25.25
2019-05-22T19:56:18.129Z,18.92
2019-05-22T19:58:47.330Z,21.87
2019-05-22T20:01:16.588Z,22.20
2019-05-22T20:03:45.917Z,20.32
2019-05-22T20:06:15.280Z,19.57
2019-05-22T20:08:45.400Z,20.95
2019-05-22T20:11:14.468Z,98.55
2019-05-22T20:13:43.985Z,21.20
2019-05-22T20:16:13.477Z,21.57
2019-05-22T20:18:43.230Z,23.52
2019-05-22T20:21:12.698Z,23.65
2019-05-22T20:23:42.780Z,21.97
2019-05-22T20:26:11.975Z,21.80
2019-05-22T20:28:41.472Z,21.93
2019-05-22T20:31:11.196Z,22.80
2019-05-22T20:33:40.799Z,23.22
2019-05-22T20:36:10.657Z,18.42
2019-05-22T20:38:40.009Z,21.97
2019-05-22T20:41:09.558Z,25.30
2019-05-22T20:43:40.149Z,23.57
2019-05-22T20:46:09.717Z,18.98
2019-05-22T20:48:38.811Z,19.87
2019-05-22T20:51:09.556Z,23.57
2019-05-22T20:53:52.729Z,24.87
2019-05-22T20:56:11.590Z,23.77
2019-05-22T20:58:41.201Z,39.83
2019-05-22T21:01:11.525Z,30.35
2019-05-22T21:03:41.716Z,24.98
2019-05-22T21:06:13.563Z,38.15
2019-05-22T21:08:43.583Z,55.63
2019-05-22T21:11:13.204Z,84.47
2019-05-22T21:13:42.440Z,66.37
2019-05-22T21:16:12.474Z,46.95
2019-05-22T21:18:43.054Z,60.10
2019-05-22T21:21:13.854Z,53.63
2019-05-22T21:23:43.041Z,44.85
2019-05-22T21:26:12.914Z,47.03
2019-05-22T21:28:42.734Z,37.15
2019-05-22T21:31:13.499Z,34.92
2019-05-22T21:33:43.014Z,33.45
2019-05-22T21:36:12.861Z,34.23
2019-05-22T21:38:41.855Z,34.78
2019-05-22T21:41:11.377Z,31.35
2019-05-22T21:43:41.232Z,32.13
2019-05-22T21:46:10.412Z,27.37
2019-05-22T21:48:40.181Z,33.90
2019-05-22T21:51:09.220Z,34.13
2019-05-22T21:53:38.340Z,28.80
2019-05-22T21:56:07.180Z,23.98
2019-05-22T21:58:36.704Z,26.97
2019-05-22T22:01:10.336Z,28.30
2019-05-22T22:03:40.973Z,28.38
2019-05-22T22:06:10.114Z,39.98
2019-05-22T22:08:39.240Z,31.27
2019-05-22T22:11:09.147Z,33.98
2019-05-22T22:13:39.694Z,34.40
2019-05-22T22:16:09.553Z,36.98
2019-05-22T22:18:40.301Z,37.00
2019-05-22T22:21:09.934Z,35.38
2019-05-22T22:23:40.748Z,31.57
2019-05-22T22:26:24.915Z,33.20
2019-05-22T22:28:42.212Z,30.20
2019-05-22T22:31:12.965Z,36.90
2019-05-22T22:33:42.461Z,25.72
2019-05-22T22:36:11.463Z,39.98
2019-05-22T22:38:42.214Z,21.57
2019-05-22T22:41:12.578Z,17.42
2019-05-22T22:43:43.440Z,17.25
2019-05-22T22:46:27.934Z,22.20
2019-05-22T22:48:58.041Z,20.57
2019-05-22T22:51:27.735Z,18.17
2019-05-22T22:53:57.482Z,18.60
2019-05-22T22:56:27.462Z,21.00
2019-05-22T22:58:57.132Z,21.77
2019-05-22T23:01:28.402Z,20.70
2019-05-22T23:03:58.693Z,24.60
2019-05-22T23:06:28.346Z,22.02
2019-05-22T23:08:57.593Z,24.10
2019-05-22T23:11:27.853Z,20.45
2019-05-22T23:13:57.666Z,23.47
2019-05-22T23:16:27.782Z,22.30
2019-05-22T23:19:16.173Z,21.85
2019-05-22T23:21:45.711Z,22.73
2019-05-22T23:24:16.716Z,22.35
2019-05-22T23:26:47.293Z,24.45
2019-05-22T23:29:18.125Z,22.48
2019-05-22T23:31:48.863Z,17.45
2019-05-22T23:34:18.794Z,17.82
2019-05-22T23:36:48.722Z,25.17
2019-05-22T23:39:19.001Z,25.48
2019-05-22T23:41:48.375Z,18.12
2019-05-22T23:44:18.926Z,15.53
2019-05-22T23:46:47.982Z,26.00
2019-05-22T23:49:17.278Z,19.35
2019-05-22T23:51:47.160Z,21.27
2019-05-22T23:54:17.284Z,26.57
2019-05-22T23:56:46.894Z,24.18
2019-05-22T23:59:17.067Z,20.72
